Time;durP1;ratioP1;P1;durP2;ratioP2;P2;SDS_P1;SDS_P2;PMS_P1;PMS_P2;Temp;Humidity;BMP_temperature;BMP_pressure;BME280_temperature;BME280_humidity;BME280_pressure;Samples;Min_cycle;Max_cycle;Signal;HPM_P1;HPM_P2
2021/09/13 00:01:50;;;;;;;4.40;3.53;;;;;;;;;;5013490;28;20452;-74
2021/09/13 00:04:17;;;;;;;5.10;3.57;;;;;;;;;;5013439;28;20424;-75
2021/09/13 00:06:45;;;;;;;4.53;3.67;;;;;;;;;;5023006;28;20448;-74
2021/09/13 00:09:11;;;;;;;6.13;3.60;;;;;;;;;;5013051;28;20447;-74
2021/09/13 00:11:37;;;;;;;5.20;2.97;;;;;;;;;;5013425;28;20446;-74
2021/09/13 00:14:03;;;;;;;6.47;3.27;;;;;;;;;;5013164;28;20427;-74
2021/09/13 00:16:29;;;;;;;7.80;3.50;;;;;;;;;;5013254;28;21263;-74
2021/09/13 00:18:55;;;;;;;6.93;3.70;;;;;;;;;;5012668;28;20523;-75
2021/09/13 00:21:21;;;;;;;9.97;5.43;;;;;;;;;;5017462;28;20415;-74
2021/09/13 00:23:47;;;;;;;4.10;3.30;;;;;;;;;;5016085;28;20983;-73
2021/09/13 00:26:13;;;;;;;4.30;3.63;;;;;;;;;;5013245;28;21102;-74
2021/09/13 00:28:39;;;;;;;9.40;3.77;;;;;;;;;;5013768;28;20452;-74
2021/09/13 00:31:05;;;;;;;10.13;4.60;;;;;;;;;;5022751;28;20458;-74
2021/09/13 00:33:31;;;;;;;5.47;3.07;;;;;;;;;;5016697;28;20871;-74
2021/09/13 00:35:57;;;;;;;4.00;3.20;;;;;;;;;;5016369;28;20464;-74
2021/09/13 00:38:24;;;;;;;5.63;3.77;;;;;;;;;;5016102;28;20826;-74
2021/09/13 00:40:50;;;;;;;6.80;4.50;;;;;;;;;;5016734;28;20873;-73
2021/09/13 00:43:16;;;;;;;6.57;3.80;;;;;;;;;;5016067;28;20451;-75
2021/09/13 00:45:42;;;;;;;4.63;3.40;;;;;;;;;;5031019;28;20427;-73
2021/09/13 00:48:08;;;;;;;6.00;3.63;;;;;;;;;;5035609;28;20965;-72
2021/09/13 00:50:34;;;;;;;5.10;3.70;;;;;;;;;;5035998;28;20451;-73
2021/09/13 00:53:00;;;;;;;4.50;3.23;;;;;;;;;;5036009;28;20426;-73
2021/09/13 00:55:26;;;;;;;5.57;3.73;;;;;;;;;;5030158;28;20473;-75
2021/09/13 00:57:53;;;;;;;9.80;4.27;;;;;;;;;;5015714;28;20770;-73
2021/09/13 01:00:20;;;;;;;7.53;4.30;;;;;;;;;;5016078;28;20440;-74
2021/09/13 01:02:46;;;;;;;5.53;4.13;;;;;;;;;;5015982;28;20416;-74
2021/09/13 01:05:12;;;;;;;5.27;4.20;;;;;;;;;;5021091;28;20911;-74
2021/09/13 01:07:38;;;;;;;6.00;4.30;;;;;;;;;;5021704;28;20439;-74
2021/09/13 01:10:06;;;;;;;7.60;4.20;;;;;;;;;;5015608;28;20523;-74
2021/09/13 01:12:32;;;;;;;5.03;4.40;;;;;;;;;;5015720;28;20420;-74
2021/09/13 01:14:58;;;;;;;7.33;4.20;;;;;;;;;;5015813;28;20816;-74
2021/09/13 01:17:24;;;;;;;4.13;3.77;;;;;;;;;;5015603;28;20416;-74
2021/09/13 01:19:50;;;;;;;5.80;4.50;;;;;;;;;;5015661;28;20764;-74
2021/09/13 01:22:18;;;;;;;4.90;4.17;;;;;;;;;;5015846;28;20442;-74
2021/09/13 01:24:44;;;;;;;7.80;4.20;;;;;;;;;;5015574;28;20412;-74
2021/09/13 01:27:11;;;;;;;5.40;4.37;;;;;;;;;;5015350;28;20424;-74
2021/09/13 01:29:37;;;;;;;5.53;4.00;;;;;;;;;;5024416;28;20435;-73
2021/09/13 01:32:04;;;;;;;8.40;4.83;;;;;;;;;;5017948;28;20506;-74
2021/09/13 01:34:30;;;;;;;6.83;4.80;;;;;;;;;;5015396;28;20410;-73
2021/09/13 01:36:57;;;;;;;5.77;4.57;;;;;;;;;;5014912;28;21038;-71
2021/09/13 01:39:23;;;;;;;6.33;4.70;;;;;;;;;;5015263;28;20764;-73
2021/09/13 01:41:49;;;;;;;7.70;4.87;;;;;;;;;;5015400;28;20459;-73
2021/09/13 01:44:16;;;;;;;5.20;4.70;;;;;;;;;;5018448;28;20852;-74
2021/09/13 01:46:42;;;;;;;8.53;5.50;;;;;;;;;;5034855;28;20419;-73
2021/09/13 01:49:09;;;;;;;6.40;5.50;;;;;;;;;;5046409;28;20440;-72
2021/09/13 01:51:35;;;;;;;5.30;4.80;;;;;;;;;;5017864;28;20452;-73
2021/09/13 01:54:01;;;;;;;6.37;5.63;;;;;;;;;;5015007;28;20414;-73
2021/09/13 01:56:28;;;;;;;7.07;5.40;;;;;;;;;;5014840;28;20474;-74
2021/09/13 01:58:54;;;;;;;8.80;4.70;;;;;;;;;;5014942;28;20438;-73
2021/09/13 02:01:21;;;;;;;7.93;5.73;;;;;;;;;;5014910;28;20503;-74
2021/09/13 02:03:47;;;;;;;6.73;5.47;;;;;;;;;;5015178;28;20840;-75
2021/09/13 02:06:14;;;;;;;9.93;6.47;;;;;;;;;;5014699;28;20443;-74
2021/09/13 02:08:40;;;;;;;7.20;6.33;;;;;;;;;;5014429;28;20420;-73
2021/09/13 02:11:06;;;;;;;8.20;7.13;;;;;;;;;;5014841;28;20439;-73
2021/09/13 02:13:32;;;;;;;7.73;6.53;;;;;;;;;;5013327;28;20420;-73
2021/09/13 02:15:58;;;;;;;6.33;5.73;;;;;;;;;;5014822;28;20819;-73
2021/09/13 02:18:25;;;;;;;8.00;5.60;;;;;;;;;;5014497;28;20412;-73
2021/09/13 02:20:51;;;;;;;6.33;5.73;;;;;;;;;;5014317;28;20432;-73
2021/09/13 02:23:17;;;;;;;7.00;5.63;;;;;;;;;;5014129;28;20771;-73
2021/09/13 02:25:43;;;;;;;7.13;6.00;;;;;;;;;;5014466;28;20779;-73
2021/09/13 02:28:09;;;;;;;7.73;5.93;;;;;;;;;;5014356;28;20425;-73
2021/09/13 02:30:35;;;;;;;7.27;6.47;;;;;;;;;;5025770;28;20486;-73
2021/09/13 02:33:01;;;;;;;7.33;6.43;;;;;;;;;;5027593;28;20430;-72
2021/09/13 02:35:27;;;;;;;7.90;7.10;;;;;;;;;;5033511;28;20877;-75
2021/09/13 02:37:53;;;;;;;13.03;6.93;;;;;;;;;;5033815;28;20414;-74
2021/09/13 02:40:20;;;;;;;9.43;6.50;;;;;;;;;;5033398;28;20439;-73
2021/09/13 02:42:46;;;;;;;9.83;7.90;;;;;;;;;;5033918;28;20805;-73
2021/09/13 02:45:12;;;;;;;13.00;8.50;;;;;;;;;;5033550;28;20414;-73
2021/09/13 02:47:38;;;;;;;9.87;8.13;;;;;;;;;;5033598;28;20798;-72
2021/09/13 02:50:07;;;;;;;9.53;7.90;;;;;;;;;;5040851;28;20684;-73
2021/09/13 02:52:33;;;;;;;9.80;8.27;;;;;;;;;;5014237;28;20427;-72
2021/09/13 02:54:59;;;;;;;9.67;8.73;;;;;;;;;;5013900;28;20419;-72
2021/09/13 02:57:25;;;;;;;14.07;9.10;;;;;;;;;;5013656;28;20920;-72
2021/09/13 02:59:51;;;;;;;15.10;9.77;;;;;;;;;;5013781;28;20497;-72
2021/09/13 03:02:17;;;;;;;10.40;9.33;;;;;;;;;;5013799;28;20994;-72
2021/09/13 03:04:43;;;;;;;12.77;9.20;;;;;;;;;;5013736;28;20446;-73
2021/09/13 03:07:10;;;;;;;13.90;10.43;;;;;;;;;;5013380;28;20521;-71
2021/09/13 03:09:36;;;;;;;12.03;10.60;;;;;;;;;;5013634;28;20431;-73
2021/09/13 03:12:04;;;;;;;16.27;9.73;;;;;;;;;;5014080;28;20767;-72
2021/09/13 03:14:30;;;;;;;11.10;9.20;;;;;;;;;;5013237;28;20455;-73
2021/09/13 03:16:56;;;;;;;12.97;9.57;;;;;;;;;;5013118;28;20524;-74
2021/09/13 03:19:22;;;;;;;12.33;10.37;;;;;;;;;;5013441;28;20834;-74
2021/09/13 03:21:48;;;;;;;12.70;9.47;;;;;;;;;;5013458;28;20464;-74
2021/09/13 03:24:14;;;;;;;9.93;8.73;;;;;;;;;;5013413;28;20418;-73
2021/09/13 03:26:40;;;;;;;11.13;9.97;;;;;;;;;;5013026;28;20412;-74
2021/09/13 03:29:06;;;;;;;10.83;9.10;;;;;;;;;;5019765;28;20430;-73
2021/09/13 03:31:32;;;;;;;13.60;9.07;;;;;;;;;;5019941;28;20416;-73
2021/09/13 03:33:58;;;;;;;10.30;8.80;;;;;;;;;;5013313;28;20463;-73
2021/09/13 03:36:25;;;;;;;9.63;8.63;;;;;;;;;;5012843;28;20464;-74
2021/09/13 03:38:51;;;;;;;10.30;9.20;;;;;;;;;;5012927;28;20445;-74
2021/09/13 03:41:17;;;;;;;11.93;9.40;;;;;;;;;;5013316;28;20404;-72
2021/09/13 03:43:43;;;;;;;11.97;9.50;;;;;;;;;;5013171;28;20423;-73
2021/09/13 03:46:10;;;;;;;12.70;9.87;;;;;;;;;;5031678;28;20461;-73
2021/09/13 03:48:36;;;;;;;11.70;9.93;;;;;;;;;;5039884;28;20413;-72
2021/09/13 03:51:02;;;;;;;13.23;10.40;;;;;;;;;;5025119;28;20775;-74
2021/09/13 03:53:28;;;;;;;12.73;10.00;;;;;;;;;;5013358;28;20415;-73
2021/09/13 03:55:54;;;;;;;11.57;9.37;;;;;;;;;;5013016;28;20924;-73
2021/09/13 03:58:20;;;;;;;10.40;8.77;;;;;;;;;;5012797;28;20416;-73
2021/09/13 04:00:46;;;;;;;11.30;8.13;;;;;;;;;;5012920;28;20488;-73
2021/09/13 04:03:17;;;;;;;10.50;8.87;;;;;;;;;;5013397;28;20430;-75
2021/09/13 04:05:45;;;;;;;10.50;7.90;;;;;;;;;;5012898;28;20439;-74
2021/09/13 04:13:12;;;;;;;8.67;7.77;;;;;;;;;;5012496;28;20432;-73
2021/09/13 04:15:38;;;;;;;10.90;7.50;;;;;;;;;;5012610;28;20456;-72
2021/09/13 04:18:05;;;;;;;13.70;8.57;;;;;;;;;;5012679;28;20823;-73
2021/09/13 04:20:31;;;;;;;11.00;8.30;;;;;;;;;;5012901;28;20491;-72
2021/09/13 04:22:57;;;;;;;12.30;7.97;;;;;;;;;;5013240;28;20431;-74
2021/09/13 04:25:23;;;;;;;12.13;8.83;;;;;;;;;;5013017;28;20420;-73
2021/09/13 04:27:49;;;;;;;11.63;8.67;;;;;;;;;;5012805;28;20428;-73
2021/09/13 04:30:15;;;;;;;11.37;9.00;;;;;;;;;;5024825;28;20447;-74
2021/09/13 04:32:41;;;;;;;10.83;9.03;;;;;;;;;;5013415;28;20772;-73
2021/09/13 04:35:07;;;;;;;10.27;8.80;;;;;;;;;;5012767;28;20420;-73
2021/09/13 04:37:33;;;;;;;10.70;9.20;;;;;;;;;;5012620;28;20427;-74
2021/09/13 04:39:59;;;;;;;12.53;8.10;;;;;;;;;;5012729;28;20433;-74
2021/09/13 04:42:25;;;;;;;9.43;8.30;;;;;;;;;;5012622;28;20420;-74
2021/09/13 04:44:51;;;;;;;12.27;9.00;;;;;;;;;;5018885;28;20471;-73
2021/09/13 04:47:17;;;;;;;15.80;9.30;;;;;;;;;;5034638;28;20956;-74
2021/09/13 04:49:43;;;;;;;12.33;9.57;;;;;;;;;;5045989;28;20439;-74
2021/09/13 04:52:09;;;;;;;15.03;10.57;;;;;;;;;;5014835;28;20443;-75
2021/09/13 04:54:35;;;;;;;10.87;9.50;;;;;;;;;;5016134;28;20424;-73
2021/09/13 04:57:01;;;;;;;16.07;9.10;;;;;;;;;;5015569;28;20850;-73
2021/09/13 04:59:28;;;;;;;12.13;9.43;;;;;;;;;;5016108;28;20436;-74
2021/09/13 05:01:54;;;;;;;14.13;11.03;;;;;;;;;;5016082;28;20409;-73
2021/09/13 05:04:20;;;;;;;12.37;10.00;;;;;;;;;;5016052;28;20498;-74
2021/09/13 05:06:46;;;;;;;15.10;10.90;;;;;;;;;;5015437;28;20443;-73
2021/09/13 05:09:12;;;;;;;14.57;10.80;;;;;;;;;;5015920;28;20453;-74
2021/09/13 05:11:39;;;;;;;12.70;10.13;;;;;;;;;;5016154;28;20428;-73
2021/09/13 05:14:05;;;;;;;13.70;9.93;;;;;;;;;;5015763;28;20425;-73
2021/09/13 05:16:33;;;;;;;12.03;8.97;;;;;;;;;;5015696;28;20459;-73
2021/09/13 05:18:59;;;;;;;11.30;9.37;;;;;;;;;;5015641;28;20841;-74
2021/09/13 05:21:26;;;;;;;13.47;9.33;;;;;;;;;;5015407;28;20767;-73
2021/09/13 05:23:52;;;;;;;13.67;9.50;;;;;;;;;;5015748;28;20413;-74
2021/09/13 05:26:18;;;;;;;12.00;9.23;;;;;;;;;;5015731;28;20436;-72
2021/09/13 05:28:44;;;;;;;16.23;9.30;;;;;;;;;;5017076;28;20443;-74
2021/09/13 05:31:10;;;;;;;10.60;9.03;;;;;;;;;;5024241;28;20512;-71
2021/09/13 05:33:36;;;;;;;14.13;8.73;;;;;;;;;;5015810;28;20432;-74
2021/09/13 05:36:02;;;;;;;9.87;8.30;;;;;;;;;;5015212;28;20492;-74
2021/09/13 05:38:28;;;;;;;11.03;7.50;;;;;;;;;;5015015;28;20448;-74
2021/09/13 05:40:54;;;;;;;13.43;8.77;;;;;;;;;;5015297;28;20433;-74
2021/09/13 05:43:20;;;;;;;12.60;8.60;;;;;;;;;;5015288;28;20413;-74
2021/09/13 05:45:46;;;;;;;11.20;8.50;;;;;;;;;;5024790;28;20924;-74
2021/09/13 05:48:12;;;;;;;11.73;7.00;;;;;;;;;;5022358;28;20422;-75
2021/09/13 05:50:38;;;;;;;13.33;7.60;;;;;;;;;;5025450;28;20436;-73
2021/09/13 05:53:04;;;;;;;9.43;6.40;;;;;;;;;;5015149;28;20475;-74
2021/09/13 05:55:30;;;;;;;9.87;6.10;;;;;;;;;;5014901;28;20853;-74
2021/09/13 05:57:56;;;;;;;9.80;6.37;;;;;;;;;;5013947;28;20413;-74
2021/09/13 06:00:22;;;;;;;8.17;6.13;;;;;;;;;;5015190;28;20468;-74
2021/09/13 06:02:48;;;;;;;14.67;7.10;;;;;;;;;;5015010;28;20409;-74
2021/09/13 06:05:14;;;;;;;9.50;6.97;;;;;;;;;;5014877;28;20857;-74
2021/09/13 06:07:40;;;;;;;8.97;6.50;;;;;;;;;;5018482;28;20529;-74
2021/09/13 06:10:06;;;;;;;15.37;7.83;;;;;;;;;;5023382;28;20448;-74
2021/09/13 06:12:32;;;;;;;8.67;6.30;;;;;;;;;;5014772;28;20423;-74
2021/09/13 06:14:58;;;;;;;10.33;6.57;;;;;;;;;;5013662;28;20524;-74
2021/09/13 06:17:24;;;;;;;7.00;5.50;;;;;;;;;;5014250;28;20449;-74
2021/09/13 06:19:50;;;;;;;9.47;6.50;;;;;;;;;;5014480;28;20426;-72
2021/09/13 06:22:16;;;;;;;9.17;5.70;;;;;;;;;;5014360;28;20412;-73
2021/09/13 06:24:42;;;;;;;10.00;5.67;;;;;;;;;;5025871;28;20409;-74
2021/09/13 06:27:10;;;;;;;10.50;5.90;;;;;;;;;;5017355;28;20413;-73
2021/09/13 06:29:36;;;;;;;14.00;6.17;;;;;;;;;;5028474;28;20825;-74
2021/09/13 06:32:02;;;;;;;9.07;5.90;;;;;;;;;;5021524;28;20417;-74
2021/09/13 06:34:30;;;;;;;9.17;6.40;;;;;;;;;;5021243;28;20424;-74
2021/09/13 06:36:56;;;;;;;9.47;6.30;;;;;;;;;;5022831;28;20528;-74
2021/09/13 06:39:22;;;;;;;8.93;6.40;;;;;;;;;;5022085;28;20460;-75
2021/09/13 06:41:48;;;;;;;9.00;6.40;;;;;;;;;;5011276;28;20432;-74
2021/09/13 06:44:21;;;;;;;6.83;4.40;;;;;;;;;;5026034;28;20439;-73
2021/09/13 06:46:50;;;;;;;6.83;5.13;;;;;;;;;;5016850;28;20430;-75
2021/09/13 06:49:18;;;;;;;8.73;4.73;;;;;;;;;;5017191;28;20512;-73
2021/09/13 06:51:44;;;;;;;10.90;4.77;;;;;;;;;;5020457;28;20515;-72
2021/09/13 06:54:10;;;;;;;8.40;3.87;;;;;;;;;;5029521;28;20490;-73
2021/09/13 06:56:36;;;;;;;4.13;3.60;;;;;;;;;;5023561;28;20469;-73
2021/09/13 06:59:02;;;;;;;5.10;3.40;;;;;;;;;;5017838;28;20454;-72
2021/09/13 07:01:32;;;;;;;8.90;3.70;;;;;;;;;;5010254;28;20417;-73
2021/09/13 07:03:58;;;;;;;10.20;4.07;;;;;;;;;;5009911;28;20421;-73
2021/09/13 07:06:30;;;;;;;8.90;3.40;;;;;;;;;;5010101;28;20540;-73
2021/09/13 07:08:57;;;;;;;7.17;3.57;;;;;;;;;;5009630;28;20468;-73
2021/09/13 07:11:23;;;;;;;6.27;3.77;;;;;;;;;;5010092;28;20515;-73
2021/09/13 07:13:49;;;;;;;4.43;3.70;;;;;;;;;;5009722;28;20422;-75
2021/09/13 07:16:15;;;;;;;5.90;3.93;;;;;;;;;;5009845;28;20500;-73
2021/09/13 07:18:41;;;;;;;9.57;3.97;;;;;;;;;;5009799;28;20505;-74
2021/09/13 07:21:07;;;;;;;8.23;4.13;;;;;;;;;;5025182;28;20506;-74
2021/09/13 07:23:33;;;;;;;9.23;4.00;;;;;;;;;;5030745;28;20411;-74
2021/09/13 07:25:59;;;;;;;8.50;3.97;;;;;;;;;;5020035;28;20980;-73
2021/09/13 07:28:25;;;;;;;6.43;3.80;;;;;;;;;;5014954;28;20539;-74
2021/09/13 07:30:51;;;;;;;7.43;3.60;;;;;;;;;;5030243;28;20522;-73
2021/09/13 07:33:17;;;;;;;5.63;3.77;;;;;;;;;;5035534;28;20889;-74
2021/09/13 07:35:43;;;;;;;6.23;3.70;;;;;;;;;;5017161;28;20465;-74
2021/09/13 07:38:09;;;;;;;6.63;4.07;;;;;;;;;;5019207;28;20467;-73
2021/09/13 07:40:35;;;;;;;5.27;3.47;;;;;;;;;;5024976;28;20433;-73
2021/09/13 07:43:01;;;;;;;4.50;3.30;;;;;;;;;;5014029;28;20497;-73
2021/09/13 07:45:27;;;;;;;3.90;2.70;;;;;;;;;;5019278;28;20448;-73
2021/09/13 07:47:53;;;;;;;7.87;3.43;;;;;;;;;;5028652;28;20451;-73
2021/09/13 07:50:19;;;;;;;6.23;3.90;;;;;;;;;;5029040;28;20549;-74
2021/09/13 07:52:45;;;;;;;5.83;2.80;;;;;;;;;;5029099;28;20476;-73
2021/09/13 07:55:11;;;;;;;6.83;3.40;;;;;;;;;;5025425;28;20464;-73
2021/09/13 07:57:38;;;;;;;5.17;3.23;;;;;;;;;;5009076;28;20413;-73
2021/09/13 08:00:04;;;;;;;5.40;3.57;;;;;;;;;;5009604;28;20452;-73
2021/09/13 08:02:31;;;;;;;7.87;3.70;;;;;;;;;;5009960;28;20410;-73
2021/09/13 08:05:00;;;;;;;14.60;8.93;;;;;;;;;;5020545;28;20779;-73
2021/09/13 08:07:26;;;;;;;14.33;4.40;;;;;;;;;;5017276;28;20447;-72
2021/09/13 08:09:52;;;;;;;4.90;3.20;;;;;;;;;;5009175;28;20472;-73
2021/09/13 08:12:18;;;;;;;7.53;4.10;;;;;;;;;;5007634;28;20524;-73
2021/09/13 08:14:44;;;;;;;7.47;4.27;;;;;;;;;;5009087;28;20933;-73
2021/09/13 08:17:11;;;;;;;9.97;6.47;;;;;;;;;;5008780;28;20469;-73
2021/09/13 08:19:40;;;;;;;7.70;3.03;;;;;;;;;;5009138;28;20452;-74
2021/09/13 08:22:06;;;;;;;5.53;2.70;;;;;;;;;;5012029;28;20430;-73
2021/09/13 08:24:32;;;;;;;5.33;2.97;;;;;;;;;;5012851;28;20417;-73
2021/09/13 08:26:58;;;;;;;5.33;2.43;;;;;;;;;;5012456;28;20457;-73
2021/09/13 08:29:24;;;;;;;3.87;3.10;;;;;;;;;;5020213;28;20529;-73
2021/09/13 08:31:52;;;;;;;8.13;2.43;;;;;;;;;;5016839;28;20429;-74
2021/09/13 08:34:18;;;;;;;5.33;2.50;;;;;;;;;;5020877;28;20431;-73
2021/09/13 08:36:45;;;;;;;7.43;2.47;;;;;;;;;;5029291;28;20538;-73
2021/09/13 08:39:11;;;;;;;10.63;2.97;;;;;;;;;;5012751;28;20437;-73
2021/09/13 08:41:37;;;;;;;6.47;2.60;;;;;;;;;;5016463;28;20424;-73
2021/09/13 08:44:03;;;;;;;6.93;2.97;;;;;;;;;;5014195;28;20410;-73
2021/09/13 08:46:39;;;;;;;5.17;2.60;;;;;;;;;;5029325;28;20441;-73
2021/09/13 08:49:08;;;;;;;3.60;2.33;;;;;;;;;;5032347;28;20493;-72
2021/09/13 08:51:34;;;;;;;6.70;3.90;;;;;;;;;;5032310;28;20998;-72
2021/09/13 08:54:07;;;;;;;4.00;2.93;;;;;;;;;;5032322;28;20782;-72
2021/09/13 08:56:40;;;;;;;6.33;3.20;;;;;;;;;;5018523;28;20469;-72
2021/09/13 08:59:11;;;;;;;7.50;2.50;;;;;;;;;;5012326;28;20877;-73
2021/09/13 09:01:38;;;;;;;3.27;2.10;;;;;;;;;;5012506;28;20413;-72
2021/09/13 09:04:04;;;;;;;4.37;2.43;;;;;;;;;;5012380;28;20472;-72
2021/09/13 09:06:43;;;;;;;5.23;2.90;;;;;;;;;;5011951;28;20445;-72
2021/09/13 09:09:16;;;;;;;7.93;2.47;;;;;;;;;;5012123;28;20437;-72
2021/09/13 09:11:49;;;;;;;5.83;2.13;;;;;;;;;;5012350;28;20421;-72
2021/09/13 09:14:42;;;;;;;2.67;1.80;;;;;;;;;;5012069;28;20414;-72
2021/09/13 09:17:08;;;;;;;4.20;1.90;;;;;;;;;;5011421;28;20472;-72
2021/09/13 09:19:34;;;;;;;4.27;2.03;;;;;;;;;;5019483;28;20451;-72
2021/09/13 09:22:19;;;;;;;5.00;2.07;;;;;;;;;;5017177;28;20447;-72
2021/09/13 09:24:46;;;;;;;5.67;2.50;;;;;;;;;;5011775;28;20417;-72
2021/09/13 09:27:12;;;;;;;18.23;15.40;;;;;;;;;;5011579;28;20853;-73
2021/09/13 09:29:38;;;;;;;4.60;2.30;;;;;;;;;;5021133;28;20436;-72
2021/09/13 09:32:05;;;;;;;5.50;3.10;;;;;;;;;;5013339;28;20417;-73
2021/09/13 09:34:33;;;;;;;5.33;2.90;;;;;;;;;;5021830;28;20521;-72
2021/09/13 09:37:00;;;;;;;4.90;1.93;;;;;;;;;;5026533;28;20924;-73
2021/09/13 09:39:29;;;;;;;5.03;2.37;;;;;;;;;;5019878;28;20434;-73
2021/09/13 09:41:56;;;;;;;5.80;4.10;;;;;;;;;;5012988;28;20417;-73
2021/09/13 09:44:23;;;;;;;6.47;2.67;;;;;;;;;;5013273;28;20416;-72
2021/09/13 09:46:50;;;;;;;4.00;2.20;;;;;;;;;;5030043;28;20507;-73
2021/09/13 09:49:17;;;;;;;4.33;2.00;;;;;;;;;;5018235;28;20451;-73
2021/09/13 09:51:49;;;;;;;4.40;2.27;;;;;;;;;;5015413;28;20422;-72
2021/09/13 09:54:16;;;;;;;5.90;2.23;;;;;;;;;;5011327;28;20516;-73
2021/09/13 09:56:44;;;;;;;5.03;2.30;;;;;;;;;;5010956;28;20992;-72
2021/09/13 09:59:12;;;;;;;3.90;2.07;;;;;;;;;;5011389;28;20437;-73
2021/09/13 10:01:39;;;;;;;4.23;1.70;;;;;;;;;;5011275;28;21240;-72
2021/09/13 10:04:15;;;;;;;4.70;1.90;;;;;;;;;;5011503;28;20988;-72
2021/09/13 10:06:44;;;;;;;3.77;2.10;;;;;;;;;;5010350;28;20440;-73
2021/09/13 10:09:10;;;;;;;4.20;2.07;;;;;;;;;;5010936;28;20451;-73
2021/09/13 10:11:39;;;;;;;6.33;1.83;;;;;;;;;;5011101;28;21008;-72
2021/09/13 10:14:06;;;;;;;3.50;2.10;;;;;;;;;;5011103;28;20913;-72
2021/09/13 10:16:32;;;;;;;3.50;2.00;;;;;;;;;;5010349;28;20470;-73
2021/09/13 10:18:59;;;;;;;3.60;2.33;;;;;;;;;;5010740;28;20444;-72
2021/09/13 10:21:25;;;;;;;10.17;6.50;;;;;;;;;;5010635;28;20421;-73
2021/09/13 10:23:52;;;;;;;6.03;2.17;;;;;;;;;;5010909;28;20453;-72
2021/09/13 10:26:18;;;;;;;7.57;2.00;;;;;;;;;;5010620;28;20422;-73
2021/09/13 10:29:15;;;;;;;6.50;2.50;;;;;;;;;;5012070;28;20425;-73
2021/09/13 10:31:45;;;;;;;4.97;2.17;;;;;;;;;;5010989;28;20453;-73
2021/09/13 10:34:21;;;;;;;4.83;2.20;;;;;;;;;;5025933;28;20423;-72
2021/09/13 10:37:00;;;;;;;4.53;2.50;;;;;;;;;;5020828;28;20472;-72
2021/09/13 10:39:44;;;;;;;3.47;2.10;;;;;;;;;;5012973;28;20437;-73
2021/09/13 10:42:10;;;;;;;5.23;1.90;;;;;;;;;;5020945;28;20425;-73
2021/09/13 10:44:37;;;;;;;5.53;2.20;;;;;;;;;;5012959;28;20425;-73
2021/09/13 10:47:04;;;;;;;3.10;2.40;;;;;;;;;;5029924;28;20420;-73
2021/09/13 10:49:31;;;;;;;5.20;1.90;;;;;;;;;;5030029;28;20436;-73
2021/09/13 10:52:15;;;;;;;5.23;1.87;;;;;;;;;;5030267;28;20428;-73
2021/09/13 10:55:16;;;;;;;2.93;1.73;;;;;;;;;;5013170;28;20910;-73
2021/09/13 10:57:55;;;;;;;3.13;1.97;;;;;;;;;;5010041;28;20501;-73
2021/09/13 11:00:52;;;;;;;3.73;1.90;;;;;;;;;;5010342;28;20767;-73
2021/09/13 11:06:03;;;;;;;4.00;2.20;;;;;;;;;;5030047;28;20442;-73
2021/09/13 11:08:29;;;;;;;3.33;2.07;;;;;;;;;;5029424;28;20420;-73
2021/09/13 11:10:55;;;;;;;3.50;2.23;;;;;;;;;;5029767;28;20471;-72
2021/09/13 11:13:21;;;;;;;5.00;2.00;;;;;;;;;;5029742;28;20466;-73
2021/09/13 11:15:47;;;;;;;6.13;2.10;;;;;;;;;;5029474;28;20463;-73
2021/09/13 11:18:29;;;;;;;2.70;1.60;;;;;;;;;;5014314;28;20422;-74
2021/09/13 11:20:57;;;;;;;3.43;1.70;;;;;;;;;;5016812;28;20446;-74
2021/09/13 11:23:33;;;;;;;6.90;1.80;;;;;;;;;;5029463;28;20787;-72
2021/09/13 11:25:59;;;;;;;4.23;1.77;;;;;;;;;;5026227;28;20420;-72
2021/09/13 11:28:25;;;;;;;4.67;2.80;;;;;;;;;;5026126;28;20468;-72
2021/09/13 11:30:51;;;;;;;3.17;1.70;;;;;;;;;;5020396;28;20441;-73
2021/09/13 11:33:18;;;;;;;5.33;2.10;;;;;;;;;;5013643;28;20531;-73
2021/09/13 11:35:44;;;;;;;4.90;2.30;;;;;;;;;;5010162;28;20505;-73
2021/09/13 11:38:10;;;;;;;4.93;1.77;;;;;;;;;;5014425;28;20444;-73
2021/09/13 11:40:36;;;;;;;3.77;1.77;;;;;;;;;;5012687;28;20434;-73
2021/09/13 11:43:11;;;;;;;4.13;2.00;;;;;;;;;;5009518;28;20890;-73
2021/09/13 11:45:37;;;;;;;5.20;1.87;;;;;;;;;;5030105;28;20435;-73
2021/09/13 11:48:04;;;;;;;2.73;1.70;;;;;;;;;;5028836;28;20430;-73
2021/09/13 11:50:30;;;;;;;7.50;1.80;;;;;;;;;;5029092;28;20440;-74
2021/09/13 11:52:57;;;;;;;2.60;1.80;;;;;;;;;;5029197;28;20458;-71
2021/09/13 11:55:27;;;;;;;7.10;2.00;;;;;;;;;;5025234;28;20418;-74
2021/09/13 11:57:55;;;;;;;4.00;2.03;;;;;;;;;;5013252;28;20421;-74
2021/09/13 12:00:25;;;;;;;3.43;2.10;;;;;;;;;;5013499;28;20939;-71
2021/09/13 12:02:53;;;;;;;5.80;2.40;;;;;;;;;;5013458;28;20940;-73
2021/09/13 12:05:21;;;;;;;3.63;1.97;;;;;;;;;;5013547;28;20424;-74
2021/09/13 12:07:48;;;;;;;3.70;2.10;;;;;;;;;;5012918;28;20455;-73
2021/09/13 12:10:46;;;;;;;3.60;1.93;;;;;;;;;;5013447;28;20856;-72
2021/09/13 12:13:14;;;;;;;2.80;1.83;;;;;;;;;;5020877;28;20424;-73
2021/09/13 12:15:48;;;;;;;3.70;1.70;;;;;;;;;;5033167;28;20864;-73
2021/09/13 12:18:16;;;;;;;2.73;1.50;;;;;;;;;;5013739;28;20423;-72
2021/09/13 12:20:43;;;;;;;6.30;2.00;;;;;;;;;;5017225;28;20441;-73
2021/09/13 12:23:09;;;;;;;4.83;2.43;;;;;;;;;;5013338;28;20909;-73
2021/09/13 12:25:39;;;;;;;2.60;1.70;;;;;;;;;;5016930;28;20420;-73
2021/09/13 12:28:05;;;;;;;4.17;2.00;;;;;;;;;;5020578;28;20417;-73
2021/09/13 12:30:32;;;;;;;3.50;1.93;;;;;;;;;;5023756;28;20441;-73
2021/09/13 12:33:02;;;;;;;4.17;1.90;;;;;;;;;;5012810;28;20425;-73
2021/09/13 12:35:35;;;;;;;9.77;2.00;;;;;;;;;;5011435;28;20927;-74
2021/09/13 12:38:01;;;;;;;3.90;2.00;;;;;;;;;;5016124;28;20417;-73
2021/09/13 12:40:28;;;;;;;3.20;1.80;;;;;;;;;;5024046;28;20436;-74
2021/09/13 12:42:54;;;;;;;3.40;1.90;;;;;;;;;;5019122;28;20544;-74
2021/09/13 12:45:21;;;;;;;3.60;1.90;;;;;;;;;;5021448;28;21117;-73
2021/09/13 12:47:50;;;;;;;2.87;1.73;;;;;;;;;;5015101;28;20462;-73
2021/09/13 12:50:29;;;;;;;3.60;1.90;;;;;;;;;;5012577;28;20438;-73
2021/09/13 12:52:56;;;;;;;2.53;1.60;;;;;;;;;;5012603;28;20428;-74
2021/09/13 12:55:22;;;;;;;4.27;1.97;;;;;;;;;;5012525;28;20421;-72
2021/09/13 12:57:48;;;;;;;3.17;2.30;;;;;;;;;;5012072;28;20892;-72
2021/09/13 13:00:15;;;;;;;5.73;1.90;;;;;;;;;;5012887;28;20468;-74
2021/09/13 13:02:43;;;;;;;4.37;1.70;;;;;;;;;;5012750;28;20421;-72
2021/09/13 13:05:28;;;;;;;3.67;2.30;;;;;;;;;;5012522;28;20416;-72
2021/09/13 13:07:54;;;;;;;3.50;1.70;;;;;;;;;;5012708;28;20501;-73
2021/09/13 13:10:20;;;;;;;2.90;2.20;;;;;;;;;;5012472;28;20934;-73
2021/09/13 13:12:46;;;;;;;4.30;1.93;;;;;;;;;;5012238;28;20528;-73
2021/09/13 13:15:15;;;;;;;4.63;2.20;;;;;;;;;;5012872;28;21091;-73
2021/09/13 13:17:41;;;;;;;7.67;5.50;;;;;;;;;;5013005;28;20433;-73
2021/09/13 13:20:08;;;;;;;4.40;2.93;;;;;;;;;;5012901;28;20445;-73
2021/09/13 13:22:34;;;;;;;4.10;2.53;;;;;;;;;;5031165;28;20457;-73
2021/09/13 13:25:00;;;;;;;4.70;2.73;;;;;;;;;;5019391;28;20922;-72
2021/09/13 13:27:26;;;;;;;4.93;2.30;;;;;;;;;;5030223;28;20444;-73
2021/09/13 13:29:52;;;;;;;4.83;2.03;;;;;;;;;;5029483;28;20440;-72
2021/09/13 13:32:18;;;;;;;3.10;1.60;;;;;;;;;;5023549;28;20456;-72
2021/09/13 13:34:44;;;;;;;5.80;3.30;;;;;;;;;;5020040;28;20516;-73
2021/09/13 13:37:11;;;;;;;4.30;2.57;;;;;;;;;;5022735;28;20548;-73
2021/09/13 13:39:37;;;;;;;5.73;2.30;;;;;;;;;;5038659;28;20559;-72
2021/09/13 13:42:03;;;;;;;7.13;2.27;;;;;;;;;;5012467;28;20913;-73
2021/09/13 13:44:29;;;;;;;4.43;1.90;;;;;;;;;;5014222;28;20897;-73
2021/09/13 13:46:55;;;;;;;2.40;1.83;;;;;;;;;;5031999;28;20448;-73
2021/09/13 13:49:21;;;;;;;2.30;1.50;;;;;;;;;;5032107;28;20451;-73
2021/09/13 13:51:47;;;;;;;5.30;4.47;;;;;;;;;;5032139;28;20432;-73
2021/09/13 13:54:13;;;;;;;3.20;2.47;;;;;;;;;;5031708;28;20420;-73
2021/09/13 13:56:39;;;;;;;2.93;1.70;;;;;;;;;;5016975;28;20803;-73
2021/09/13 13:59:05;;;;;;;4.13;1.70;;;;;;;;;;5011550;28;20442;-72
2021/09/13 14:01:31;;;;;;;2.63;1.30;;;;;;;;;;5011740;28;20418;-72
2021/09/13 14:03:58;;;;;;;8.13;1.80;;;;;;;;;;5011505;28;20416;-73
2021/09/13 14:06:24;;;;;;;3.43;1.90;;;;;;;;;;5011403;28;20445;-72
2021/09/13 14:08:50;;;;;;;6.30;3.63;;;;;;;;;;5010868;28;20897;-72
2021/09/13 14:11:16;;;;;;;2.77;2.07;;;;;;;;;;5011377;28;20413;-72
2021/09/13 14:13:42;;;;;;;2.53;1.60;;;;;;;;;;5011097;28;20452;-72
2021/09/13 14:16:08;;;;;;;3.00;2.40;;;;;;;;;;5011104;28;20468;-73
2021/09/13 14:18:35;;;;;;;3.63;1.67;;;;;;;;;;5010287;28;20417;-72
2021/09/13 14:21:01;;;;;;;2.27;1.53;;;;;;;;;;5016561;28;20428;-73
2021/09/13 14:23:27;;;;;;;4.77;1.70;;;;;;;;;;5011292;28;20424;-73
2021/09/13 14:25:53;;;;;;;2.93;1.73;;;;;;;;;;5012095;28;20785;-73
2021/09/13 14:28:19;;;;;;;2.30;1.60;;;;;;;;;;5021904;28;20447;-74
2021/09/13 14:30:45;;;;;;;4.67;1.40;;;;;;;;;;5021720;28;20480;-74
2021/09/13 14:33:12;;;;;;;4.37;1.53;;;;;;;;;;5017821;28;20455;-73
2021/09/13 14:35:38;;;;;;;3.50;1.50;;;;;;;;;;5011813;28;20464;-73
2021/09/13 14:38:04;;;;;;;2.73;2.30;;;;;;;;;;5016212;28;20878;-73
2021/09/13 14:40:30;;;;;;;2.73;1.57;;;;;;;;;;5010320;28;20478;-73
2021/09/13 14:42:56;;;;;;;2.67;1.50;;;;;;;;;;5009142;28;20425;-73
2021/09/13 14:45:22;;;;;;;2.63;1.40;;;;;;;;;;5019628;28;20431;-73
2021/09/13 14:47:49;;;;;;;4.63;2.00;;;;;;;;;;5014523;28;20516;-73
2021/09/13 14:50:15;;;;;;;3.37;1.73;;;;;;;;;;5010348;28;20433;-72